sensor_id;sensor_type;location;lat;lon;timestamp;P1;durP1;ratioP1;P2;durP2;ratioP2
21128;SDS011;10722;51.910;8.352;2022-08-06T00:02:04;6.75;;;2.10;;
21128;SDS011;10722;51.910;8.352;2022-08-06T00:04:50;4.75;;;1.80;;
21128;SDS011;10722;51.910;8.352;2022-08-06T00:07:35;5.13;;;1.70;;
21128;SDS011;10722;51.910;8.352;2022-08-06T00:10:32;4.10;;;1.80;;
21128;SDS011;10722;51.910;8.352;2022-08-06T00:13:19;5.47;;;1.67;;
21128;SDS011;10722;51.910;8.352;2022-08-06T00:16:04;7.80;;;2.13;;
21128;SDS011;10722;51.910;8.352;2022-08-06T00:19:09;8.93;;;2.05;;
21128;SDS011;10722;51.910;8.352;2022-08-06T00:22:04;5.03;;;1.80;;
21128;SDS011;10722;51.910;8.352;2022-08-06T00:24:49;7.68;;;2.20;;
21128;SDS011;10722;51.910;8.352;2022-08-06T00:27:34;7.38;;;2.15;;
21128;SDS011;10722;51.910;8.352;2022-08-06T00:30:22;3.33;;;1.70;;
21128;SDS011;10722;51.910;8.352;2022-08-06T00:33:08;5.82;;;2.00;;
21128;SDS011;10722;51.910;8.352;2022-08-06T00:35:54;6.20;;;1.80;;
21128;SDS011;10722;51.910;8.352;2022-08-06T00:38:43;6.05;;;2.10;;
21128;SDS011;10722;51.910;8.352;2022-08-06T00:41:29;7.45;;;2.30;;
21128;SDS011;10722;51.910;8.352;2022-08-06T00:44:30;7.78;;;2.20;;
21128;SDS011;10722;51.910;8.352;2022-08-06T00:47:15;6.85;;;2.10;;
21128;SDS011;10722;51.910;8.352;2022-08-06T00:50:20;4.90;;;1.90;;
21128;SDS011;10722;51.910;8.352;2022-08-06T00:53:06;6.38;;;1.75;;
21128;SDS011;10722;51.910;8.352;2022-08-06T00:55:57;5.57;;;1.75;;
21128;SDS011;10722;51.910;8.352;2022-08-06T00:58:45;6.90;;;2.17;;
21128;SDS011;10722;51.910;8.352;2022-08-06T01:01:31;7.53;;;2.00;;
21128;SDS011;10722;51.910;8.352;2022-08-06T01:04:34;5.85;;;1.92;;
21128;SDS011;10722;51.910;8.352;2022-08-06T01:07:22;6.15;;;2.00;;
21128;SDS011;10722;51.910;8.352;2022-08-06T01:10:27;7.05;;;2.00;;
21128;SDS011;10722;51.910;8.352;2022-08-06T01:13:26;5.53;;;1.90;;
21128;SDS011;10722;51.910;8.352;2022-08-06T01:16:48;7.88;;;2.20;;
21128;SDS011;10722;51.910;8.352;2022-08-06T01:26:36;4.75;;;2.10;;
21128;SDS011;10722;51.910;8.352;2022-08-06T01:29:38;6.13;;;2.20;;
21128;SDS011;10722;51.910;8.352;2022-08-06T01:32:29;8.18;;;2.20;;
21128;SDS011;10722;51.910;8.352;2022-08-06T01:35:24;6.25;;;2.10;;
21128;SDS011;10722;51.910;8.352;2022-08-06T01:38:33;7.40;;;2.35;;
21128;SDS011;10722;51.910;8.352;2022-08-06T01:41:34;5.90;;;2.40;;
21128;SDS011;10722;51.910;8.352;2022-08-06T01:44:43;8.70;;;2.20;;
21128;SDS011;10722;51.910;8.352;2022-08-06T01:47:32;5.45;;;2.10;;
21128;SDS011;10722;51.910;8.352;2022-08-06T01:50:40;5.85;;;2.38;;
21128;SDS011;10722;51.910;8.352;2022-08-06T01:53:30;7.15;;;2.35;;
21128;SDS011;10722;51.910;8.352;2022-08-06T01:56:40;9.02;;;2.30;;
21128;SDS011;10722;51.910;8.352;2022-08-06T01:59:44;5.85;;;2.30;;
21128;SDS011;10722;51.910;8.352;2022-08-06T02:02:32;7.50;;;2.40;;
21128;SDS011;10722;51.910;8.352;2022-08-06T02:05:26;7.00;;;2.45;;
21128;SDS011;10722;51.910;8.352;2022-08-06T02:08:16;7.45;;;2.50;;
21128;SDS011;10722;51.910;8.352;2022-08-06T02:11:24;8.40;;;2.60;;
21128;SDS011;10722;51.910;8.352;2022-08-06T02:14:29;7.10;;;2.67;;
21128;SDS011;10722;51.910;8.352;2022-08-06T02:17:19;8.23;;;2.63;;
21128;SDS011;10722;51.910;8.352;2022-08-06T02:20:32;7.10;;;2.55;;
21128;SDS011;10722;51.910;8.352;2022-08-06T02:23:22;5.70;;;2.65;;
21128;SDS011;10722;51.910;8.352;2022-08-06T02:26:17;8.25;;;2.58;;
21128;SDS011;10722;51.910;8.352;2022-08-06T02:29:10;5.30;;;2.15;;
21128;SDS011;10722;51.910;8.352;2022-08-06T02:31:58;6.88;;;2.22;;
21128;SDS011;10722;51.910;8.352;2022-08-06T02:34:46;7.03;;;2.20;;
21128;SDS011;10722;51.910;8.352;2022-08-06T02:37:38;8.43;;;2.65;;
21128;SDS011;10722;51.910;8.352;2022-08-06T02:40:50;4.88;;;2.20;;
21128;SDS011;10722;51.910;8.352;2022-08-06T02:43:40;3.85;;;2.20;;
21128;SDS011;10722;51.910;8.352;2022-08-06T02:46:40;7.32;;;2.10;;
21128;SDS011;10722;51.910;8.352;2022-08-06T02:49:33;6.55;;;2.17;;
21128;SDS011;10722;51.910;8.352;2022-08-06T02:52:28;5.85;;;2.40;;
21128;SDS011;10722;51.910;8.352;2022-08-06T02:55:26;8.30;;;2.40;;
21128;SDS011;10722;51.910;8.352;2022-08-06T03:01:48;5.45;;;2.40;;
21128;SDS011;10722;51.910;8.352;2022-08-06T03:04:36;7.55;;;2.78;;
21128;SDS011;10722;51.910;8.352;2022-08-06T03:07:38;5.50;;;2.30;;
21128;SDS011;10722;51.910;8.352;2022-08-06T03:10:26;8.60;;;2.17;;
21128;SDS011;10722;51.910;8.352;2022-08-06T03:13:14;8.25;;;2.55;;
21128;SDS011;10722;51.910;8.352;2022-08-06T03:16:03;9.50;;;2.58;;
21128;SDS011;10722;51.910;8.352;2022-08-06T03:19:08;8.48;;;2.85;;
21128;SDS011;10722;51.910;8.352;2022-08-06T03:22:16;9.85;;;3.00;;
21128;SDS011;10722;51.910;8.352;2022-08-06T03:25:19;10.65;;;2.92;;
21128;SDS011;10722;51.910;8.352;2022-08-06T03:28:08;8.30;;;3.00;;
21128;SDS011;10722;51.910;8.352;2022-08-06T03:31:04;9.88;;;3.13;;
21128;SDS011;10722;51.910;8.352;2022-08-06T03:33:51;7.75;;;3.10;;
21128;SDS011;10722;51.910;8.352;2022-08-06T03:36:38;8.52;;;2.80;;
21128;SDS011;10722;51.910;8.352;2022-08-06T03:39:25;7.82;;;3.03;;
21128;SDS011;10722;51.910;8.352;2022-08-06T03:42:12;6.05;;;2.88;;
21128;SDS011;10722;51.910;8.352;2022-08-06T03:44:58;5.50;;;2.80;;
21128;SDS011;10722;51.910;8.352;2022-08-06T03:47:46;6.38;;;2.67;;
21128;SDS011;10722;51.910;8.352;2022-08-06T03:50:52;9.02;;;3.15;;
21128;SDS011;10722;51.910;8.352;2022-08-06T03:53:42;9.93;;;3.65;;
21128;SDS011;10722;51.910;8.352;2022-08-06T03:56:34;7.85;;;3.08;;
21128;SDS011;10722;51.910;8.352;2022-08-06T03:59:23;7.07;;;2.90;;
21128;SDS011;10722;51.910;8.352;2022-08-06T04:02:22;10.30;;;3.60;;
21128;SDS011;10722;51.910;8.352;2022-08-06T04:05:27;9.25;;;3.15;;
21128;SDS011;10722;51.910;8.352;2022-08-06T04:08:15;7.78;;;3.05;;
21128;SDS011;10722;51.910;8.352;2022-08-06T04:11:02;8.15;;;3.75;;
21128;SDS011;10722;51.910;8.352;2022-08-06T04:13:49;6.43;;;3.20;;
21128;SDS011;10722;51.910;8.352;2022-08-06T04:16:52;8.65;;;3.15;;
21128;SDS011;10722;51.910;8.352;2022-08-06T04:19:38;10.80;;;3.30;;
21128;SDS011;10722;51.910;8.352;2022-08-06T04:22:28;9.35;;;3.55;;
21128;SDS011;10722;51.910;8.352;2022-08-06T04:25:34;9.60;;;3.65;;
21128;SDS011;10722;51.910;8.352;2022-08-06T04:28:28;8.25;;;3.72;;
21128;SDS011;10722;51.910;8.352;2022-08-06T04:31:16;9.70;;;4.00;;
21128;SDS011;10722;51.910;8.352;2022-08-06T04:34:23;11.00;;;4.38;;
21128;SDS011;10722;51.910;8.352;2022-08-06T04:37:13;9.73;;;4.32;;
21128;SDS011;10722;51.910;8.352;2022-08-06T04:39:58;11.63;;;3.80;;
21128;SDS011;10722;51.910;8.352;2022-08-06T04:42:44;10.18;;;4.03;;
21128;SDS011;10722;51.910;8.352;2022-08-06T04:45:34;10.13;;;3.95;;
21128;SDS011;10722;51.910;8.352;2022-08-06T04:48:42;9.18;;;3.58;;
21128;SDS011;10722;51.910;8.352;2022-08-06T04:51:31;9.38;;;3.58;;
21128;SDS011;10722;51.910;8.352;2022-08-06T04:54:37;7.45;;;3.38;;
21128;SDS011;10722;51.910;8.352;2022-08-06T04:57:25;8.30;;;3.65;;
21128;SDS011;10722;51.910;8.352;2022-08-06T05:00:25;10.82;;;4.10;;
21128;SDS011;10722;51.910;8.352;2022-08-06T05:03:30;12.02;;;4.00;;
21128;SDS011;10722;51.910;8.352;2022-08-06T05:09:38;9.98;;;4.18;;
21128;SDS011;10722;51.910;8.352;2022-08-06T05:12:38;12.68;;;4.70;;
21128;SDS011;10722;51.910;8.352;2022-08-06T05:15:33;9.48;;;4.00;;
21128;SDS011;10722;51.910;8.352;2022-08-06T05:18:29;11.05;;;4.20;;
21128;SDS011;10722;51.910;8.352;2022-08-06T05:21:39;10.27;;;4.63;;
21128;SDS011;10722;51.910;8.352;2022-08-06T05:24:45;13.98;;;4.85;;
21128;SDS011;10722;51.910;8.352;2022-08-06T05:27:49;11.90;;;4.95;;
21128;SDS011;10722;51.910;8.352;2022-08-06T05:30:54;9.75;;;4.60;;
21128;SDS011;10722;51.910;8.352;2022-08-06T05:33:41;13.65;;;5.00;;
21128;SDS011;10722;51.910;8.352;2022-08-06T05:36:26;14.10;;;4.88;;
21128;SDS011;10722;51.910;8.352;2022-08-06T05:39:14;13.85;;;4.85;;
21128;SDS011;10722;51.910;8.352;2022-08-06T05:42:20;13.05;;;4.72;;
21128;SDS011;10722;51.910;8.352;2022-08-06T05:45:10;12.73;;;4.70;;
21128;SDS011;10722;51.910;8.352;2022-08-06T05:47:59;11.75;;;4.80;;
21128;SDS011;10722;51.910;8.352;2022-08-06T05:50:58;13.90;;;5.00;;
21128;SDS011;10722;51.910;8.352;2022-08-06T05:53:53;10.13;;;4.47;;
21128;SDS011;10722;51.910;8.352;2022-08-06T05:57:02;12.48;;;4.82;;
21128;SDS011;10722;51.910;8.352;2022-08-06T06:00:03;16.25;;;5.60;;
21128;SDS011;10722;51.910;8.352;2022-08-06T06:02:51;15.57;;;5.47;;
21128;SDS011;10722;51.910;8.352;2022-08-06T06:05:40;11.68;;;4.50;;
21128;SDS011;10722;51.910;8.352;2022-08-06T06:08:46;13.07;;;4.85;;
21128;SDS011;10722;51.910;8.352;2022-08-06T06:11:42;13.40;;;4.85;;
21128;SDS011;10722;51.910;8.352;2022-08-06T06:14:45;13.13;;;5.20;;
21128;SDS011;10722;51.910;8.352;2022-08-06T06:17:41;12.43;;;5.15;;
21128;SDS011;10722;51.910;8.352;2022-08-06T06:27:11;12.38;;;4.75;;
21128;SDS011;10722;51.910;8.352;2022-08-06T06:30:26;12.18;;;5.20;;
21128;SDS011;10722;51.910;8.352;2022-08-06T06:33:38;11.93;;;5.07;;
21128;SDS011;10722;51.910;8.352;2022-08-06T06:42:45;15.43;;;5.05;;
21128;SDS011;10722;51.910;8.352;2022-08-06T06:46:12;11.38;;;4.50;;
21128;SDS011;10722;51.910;8.352;2022-08-06T06:49:52;11.75;;;4.80;;
21128;SDS011;10722;51.910;8.352;2022-08-06T06:52:51;12.32;;;4.57;;
21128;SDS011;10722;51.910;8.352;2022-08-06T06:55:40;10.98;;;4.28;;
21128;SDS011;10722;51.910;8.352;2022-08-06T06:58:45;14.13;;;5.03;;
21128;SDS011;10722;51.910;8.352;2022-08-06T07:01:35;11.93;;;3.90;;
21128;SDS011;10722;51.910;8.352;2022-08-06T07:04:24;15.52;;;4.30;;
21128;SDS011;10722;51.910;8.352;2022-08-06T07:07:13;13.50;;;3.95;;
21128;SDS011;10722;51.910;8.352;2022-08-06T07:10:08;11.50;;;3.88;;
21128;SDS011;10722;51.910;8.352;2022-08-06T07:12:56;12.23;;;3.90;;
21128;SDS011;10722;51.910;8.352;2022-08-06T07:15:43;12.07;;;3.72;;
21128;SDS011;10722;51.910;8.352;2022-08-06T07:18:38;11.30;;;3.28;;
21128;SDS011;10722;51.910;8.352;2022-08-06T07:21:33;11.05;;;3.30;;
21128;SDS011;10722;51.910;8.352;2022-08-06T07:24:22;12.10;;;3.40;;
21128;SDS011;10722;51.910;8.352;2022-08-06T07:27:26;9.18;;;2.60;;
21128;SDS011;10722;51.910;8.352;2022-08-06T07:30:27;11.00;;;2.55;;
21128;SDS011;10722;51.910;8.352;2022-08-06T07:33:13;8.38;;;2.08;;
21128;SDS011;10722;51.910;8.352;2022-08-06T07:36:00;9.80;;;2.20;;
21128;SDS011;10722;51.910;8.352;2022-08-06T07:38:46;7.32;;;1.90;;
21128;SDS011;10722;51.910;8.352;2022-08-06T07:41:33;9.65;;;2.10;;
21128;SDS011;10722;51.910;8.352;2022-08-06T07:44:41;8.65;;;1.60;;
21128;SDS011;10722;51.910;8.352;2022-08-06T07:47:40;7.82;;;1.75;;
21128;SDS011;10722;51.910;8.352;2022-08-06T07:50:48;7.78;;;2.15;;
21128;SDS011;10722;51.910;8.352;2022-08-06T07:53:38;20.15;;;10.85;;
21128;SDS011;10722;51.910;8.352;2022-08-06T07:56:43;6.35;;;1.40;;
21128;SDS011;10722;51.910;8.352;2022-08-06T07:59:46;6.10;;;1.50;;
21128;SDS011;10722;51.910;8.352;2022-08-06T08:02:39;7.70;;;1.40;;
21128;SDS011;10722;51.910;8.352;2022-08-06T08:05:25;5.03;;;1.10;;
21128;SDS011;10722;51.910;8.352;2022-08-06T08:08:26;7.32;;;1.30;;
21128;SDS011;10722;51.910;8.352;2022-08-06T08:11:13;6.05;;;1.17;;
21128;SDS011;10722;51.910;8.352;2022-08-06T08:14:00;5.38;;;1.00;;
21128;SDS011;10722;51.910;8.352;2022-08-06T08:16:50;5.72;;;1.20;;
21128;SDS011;10722;51.910;8.352;2022-08-06T08:19:36;6.65;;;1.10;;
21128;SDS011;10722;51.910;8.352;2022-08-06T08:22:21;5.57;;;1.00;;
21128;SDS011;10722;51.910;8.352;2022-08-06T08:25:08;7.80;;;1.10;;
21128;SDS011;10722;51.910;8.352;2022-08-06T08:27:54;5.90;;;0.80;;
21128;SDS011;10722;51.910;8.352;2022-08-06T08:30:39;4.72;;;0.90;;
21128;SDS011;10722;51.910;8.352;2022-08-06T08:33:25;5.13;;;1.00;;
21128;SDS011;10722;51.910;8.352;2022-08-06T08:36:10;7.38;;;1.08;;
21128;SDS011;10722;51.910;8.352;2022-08-06T08:38:56;6.95;;;1.85;;
21128;SDS011;10722;51.910;8.352;2022-08-06T08:41:46;28.08;;;16.10;;
21128;SDS011;10722;51.910;8.352;2022-08-06T08:44:35;2.22;;;0.50;;
21128;SDS011;10722;51.910;8.352;2022-08-06T08:47:21;4.95;;;1.00;;
21128;SDS011;10722;51.910;8.352;2022-08-06T08:50:25;2.83;;;0.70;;
21128;SDS011;10722;51.910;8.352;2022-08-06T08:53:14;4.78;;;0.90;;
21128;SDS011;10722;51.910;8.352;2022-08-06T08:56:28;2.53;;;0.70;;
21128;SDS011;10722;51.910;8.352;2022-08-06T08:59:34;2.38;;;0.63;;
21128;SDS011;10722;51.910;8.352;2022-08-06T09:02:41;4.47;;;0.80;;
21128;SDS011;10722;51.910;8.352;2022-08-06T09:05:34;6.13;;;1.10;;
21128;SDS011;10722;51.910;8.352;2022-08-06T09:08:20;4.85;;;0.90;;
21128;SDS011;10722;51.910;8.352;2022-08-06T09:11:26;4.38;;;0.80;;
21128;SDS011;10722;51.910;8.352;2022-08-06T09:14:31;4.43;;;0.90;;
21128;SDS011;10722;51.910;8.352;2022-08-06T09:17:17;4.10;;;0.80;;
21128;SDS011;10722;51.910;8.352;2022-08-06T09:20:22;5.57;;;1.00;;
21128;SDS011;10722;51.910;8.352;2022-08-06T09:23:08;3.25;;;0.80;;
21128;SDS011;10722;51.910;8.352;2022-08-06T09:25:56;3.20;;;0.80;;
21128;SDS011;10722;51.910;8.352;2022-08-06T09:28:43;5.03;;;0.77;;
21128;SDS011;10722;51.910;8.352;2022-08-06T09:31:32;1.58;;;0.60;;
21128;SDS011;10722;51.910;8.352;2022-08-06T09:34:32;5.13;;;1.00;;
21128;SDS011;10722;51.910;8.352;2022-08-06T09:37:29;3.40;;;1.00;;
21128;SDS011;10722;51.910;8.352;2022-08-06T09:40:34;4.40;;;0.98;;
21128;SDS011;10722;51.910;8.352;2022-08-06T09:43:25;1.90;;;0.75;;
21128;SDS011;10722;51.910;8.352;2022-08-06T09:46:35;3.10;;;0.75;;
21128;SDS011;10722;51.910;8.352;2022-08-06T09:49:26;4.50;;;0.70;;
21128;SDS011;10722;51.910;8.352;2022-08-06T09:52:31;3.60;;;0.75;;
21128;SDS011;10722;51.910;8.352;2022-08-06T09:55:27;4.68;;;0.80;;
21128;SDS011;10722;51.910;8.352;2022-08-06T09:58:14;3.67;;;0.60;;
21128;SDS011;10722;51.910;8.352;2022-08-06T10:01:21;2.00;;;0.52;;
21128;SDS011;10722;51.910;8.352;2022-08-06T10:04:13;2.38;;;0.50;;
21128;SDS011;10722;51.910;8.352;2022-08-06T10:07:29;2.70;;;0.52;;
21128;SDS011;10722;51.910;8.352;2022-08-06T10:13:50;1.42;;;0.50;;
21128;SDS011;10722;51.910;8.352;2022-08-06T10:16:38;2.60;;;0.50;;
21128;SDS011;10722;51.910;8.352;2022-08-06T10:19:24;14.13;;;7.70;;
21128;SDS011;10722;51.910;8.352;2022-08-06T10:22:20;2.25;;;0.60;;
21128;SDS011;10722;51.910;8.352;2022-08-06T10:25:11;20.50;;;12.65;;
21128;SDS011;10722;51.910;8.352;2022-08-06T10:27:57;8.15;;;2.60;;
21128;SDS011;10722;51.910;8.352;2022-08-06T10:30:45;1.95;;;0.47;;
21128;SDS011;10722;51.910;8.352;2022-08-06T10:33:32;2.80;;;0.52;;
21128;SDS011;10722;51.910;8.352;2022-08-06T10:36:32;2.72;;;0.55;;
21128;SDS011;10722;51.910;8.352;2022-08-06T10:39:27;1.73;;;0.40;;
21128;SDS011;10722;51.910;8.352;2022-08-06T10:42:35;3.38;;;0.50;;
21128;SDS011;10722;51.910;8.352;2022-08-06T10:45:24;3.63;;;0.38;;
21128;SDS011;10722;51.910;8.352;2022-08-06T10:48:24;2.38;;;0.45;;
21128;SDS011;10722;51.910;8.352;2022-08-06T10:51:30;1.00;;;0.55;;
21128;SDS011;10722;51.910;8.352;2022-08-06T10:54:36;3.25;;;0.60;;
21128;SDS011;10722;51.910;8.352;2022-08-06T10:57:22;3.78;;;0.60;;
21128;SDS011;10722;51.910;8.352;2022-08-06T11:00:20;3.50;;;0.52;;
21128;SDS011;10722;51.910;8.352;2022-08-06T11:03:12;6.15;;;0.73;;
21128;SDS011;10722;51.910;8.352;2022-08-06T11:06:13;2.70;;;0.50;;
21128;SDS011;10722;51.910;8.352;2022-08-06T11:09:24;1.95;;;0.30;;
21128;SDS011;10722;51.910;8.352;2022-08-06T11:15:52;3.03;;;0.70;;
21128;SDS011;10722;51.910;8.352;2022-08-06T11:18:56;3.80;;;0.80;;
21128;SDS011;10722;51.910;8.352;2022-08-06T11:21:51;5.57;;;0.80;;
21128;SDS011;10722;51.910;8.352;2022-08-06T11:24:51;2.40;;;0.70;;
21128;SDS011;10722;51.910;8.352;2022-08-06T11:27:53;4.30;;;0.70;;
21128;SDS011;10722;51.910;8.352;2022-08-06T11:30:50;1.90;;;0.40;;
21128;SDS011;10722;51.910;8.352;2022-08-06T11:36:25;1.58;;;0.52;;
21128;SDS011;10722;51.910;8.352;2022-08-06T11:39:12;2.60;;;0.60;;
21128;SDS011;10722;51.910;8.352;2022-08-06T11:42:02;2.35;;;0.50;;
21128;SDS011;10722;51.910;8.352;2022-08-06T11:45:02;2.50;;;0.55;;
21128;SDS011;10722;51.910;8.352;2022-08-06T11:48:07;3.30;;;0.77;;
21128;SDS011;10722;51.910;8.352;2022-08-06T11:51:50;3.85;;;0.47;;
21128;SDS011;10722;51.910;8.352;2022-08-06T11:57:33;2.78;;;0.50;;
21128;SDS011;10722;51.910;8.352;2022-08-06T12:00:30;4.70;;;0.70;;
21128;SDS011;10722;51.910;8.352;2022-08-06T12:03:15;3.85;;;0.75;;
21128;SDS011;10722;51.910;8.352;2022-08-06T12:06:30;4.65;;;1.60;;
21128;SDS011;10722;51.910;8.352;2022-08-06T12:09:15;4.72;;;0.60;;
21128;SDS011;10722;51.910;8.352;2022-08-06T12:18:03;3.33;;;0.47;;
21128;SDS011;10722;51.910;8.352;2022-08-06T12:21:09;5.00;;;0.55;;
21128;SDS011;10722;51.910;8.352;2022-08-06T12:23:54;1.83;;;0.50;;
21128;SDS011;10722;51.910;8.352;2022-08-06T12:26:41;2.03;;;0.50;;
21128;SDS011;10722;51.910;8.352;2022-08-06T12:29:30;3.40;;;0.60;;
21128;SDS011;10722;51.910;8.352;2022-08-06T12:38:53;3.10;;;0.65;;
21128;SDS011;10722;51.910;8.352;2022-08-06T12:41:43;1.45;;;0.40;;
21128;SDS011;10722;51.910;8.352;2022-08-06T12:44:31;2.70;;;0.50;;
21128;SDS011;10722;51.910;8.352;2022-08-06T12:47:36;3.35;;;0.40;;
21128;SDS011;10722;51.910;8.352;2022-08-06T12:50:42;2.85;;;0.50;;
21128;SDS011;10722;51.910;8.352;2022-08-06T12:53:28;5.35;;;0.60;;
21128;SDS011;10722;51.910;8.352;2022-08-06T12:56:15;1.50;;;0.40;;
21128;SDS011;10722;51.910;8.352;2022-08-06T12:59:16;8.48;;;2.25;;
21128;SDS011;10722;51.910;8.352;2022-08-06T13:02:08;3.78;;;0.60;;
21128;SDS011;10722;51.910;8.352;2022-08-06T13:05:11;2.17;;;0.60;;
21128;SDS011;10722;51.910;8.352;2022-08-06T13:07:59;1.45;;;0.30;;
21128;SDS011;10722;51.910;8.352;2022-08-06T13:10:49;9.80;;;4.18;;
21128;SDS011;10722;51.910;8.352;2022-08-06T13:13:39;2.78;;;0.70;;
21128;SDS011;10722;51.910;8.352;2022-08-06T13:16:52;2.75;;;0.40;;
21128;SDS011;10722;51.910;8.352;2022-08-06T13:19:53;3.55;;;0.50;;
21128;SDS011;10722;51.910;8.352;2022-08-06T13:22:49;3.55;;;0.40;;
21128;SDS011;10722;51.910;8.352;2022-08-06T13:25:42;2.53;;;0.50;;
21128;SDS011;10722;51.910;8.352;2022-08-06T13:28:37;4.22;;;0.50;;
21128;SDS011;10722;51.910;8.352;2022-08-06T13:31:42;3.20;;;0.38;;
21128;SDS011;10722;51.910;8.352;2022-08-06T13:34:48;9.00;;;2.92;;
21128;SDS011;10722;51.910;8.352;2022-08-06T13:37:49;1.85;;;0.40;;
21128;SDS011;10722;51.910;8.352;2022-08-06T13:40:56;2.63;;;0.60;;
21128;SDS011;10722;51.910;8.352;2022-08-06T13:43:48;2.90;;;0.60;;
21128;SDS011;10722;51.910;8.352;2022-08-06T13:46:42;3.08;;;0.63;;
21128;SDS011;10722;51.910;8.352;2022-08-06T13:49:35;2.45;;;0.50;;
21128;SDS011;10722;51.910;8.352;2022-08-06T13:52:24;2.38;;;0.40;;
21128;SDS011;10722;51.910;8.352;2022-08-06T13:55:08;3.15;;;0.70;;
21128;SDS011;10722;51.910;8.352;2022-08-06T13:57:57;3.88;;;0.68;;
21128;SDS011;10722;51.910;8.352;2022-08-06T14:00:44;3.97;;;0.68;;
21128;SDS011;10722;51.910;8.352;2022-08-06T14:03:29;2.72;;;0.70;;
21128;SDS011;10722;51.910;8.352;2022-08-06T14:06:22;3.60;;;0.50;;
21128;SDS011;10722;51.910;8.352;2022-08-06T14:09:07;1.20;;;0.40;;
21128;SDS011;10722;51.910;8.352;2022-08-06T14:12:04;4.55;;;0.73;;
21128;SDS011;10722;51.910;8.352;2022-08-06T14:14:51;1.55;;;0.45;;
21128;SDS011;10722;51.910;8.352;2022-08-06T14:17:37;1.50;;;0.50;;
21128;SDS011;10722;51.910;8.352;2022-08-06T14:20:26;1.13;;;0.40;;
21128;SDS011;10722;51.910;8.352;2022-08-06T14:23:14;0.73;;;0.40;;
21128;SDS011;10722;51.910;8.352;2022-08-06T14:26:00;3.22;;;0.52;;
21128;SDS011;10722;51.910;8.352;2022-08-06T14:28:47;3.25;;;0.90;;
21128;SDS011;10722;51.910;8.352;2022-08-06T14:31:52;2.88;;;0.75;;
21128;SDS011;10722;51.910;8.352;2022-08-06T14:34:42;2.17;;;0.60;;
21128;SDS011;10722;51.910;8.352;2022-08-06T14:37:29;3.85;;;0.57;;
21128;SDS011;10722;51.910;8.352;2022-08-06T14:40:34;1.70;;;0.43;;
21128;SDS011;10722;51.910;8.352;2022-08-06T14:43:20;1.45;;;0.40;;
21128;SDS011;10722;51.910;8.352;2022-08-06T14:46:05;3.03;;;0.60;;
21128;SDS011;10722;51.910;8.352;2022-08-06T14:48:50;2.60;;;0.60;;
21128;SDS011;10722;51.910;8.352;2022-08-06T14:51:41;2.03;;;0.75;;
21128;SDS011;10722;51.910;8.352;2022-08-06T14:54:46;1.38;;;0.40;;
21128;SDS011;10722;51.910;8.352;2022-08-06T14:57:48;0.80;;;0.40;;
21128;SDS011;10722;51.910;8.352;2022-08-06T15:00:52;3.17;;;0.57;;
21128;SDS011;10722;51.910;8.352;2022-08-06T15:03:38;3.53;;;0.50;;
21128;SDS011;10722;51.910;8.352;2022-08-06T15:06:27;3.97;;;0.63;;
21128;SDS011;10722;51.910;8.352;2022-08-06T15:09:14;1.75;;;0.55;;
21128;SDS011;10722;51.910;8.352;2022-08-06T15:12:00;2.40;;;0.68;;
21128;SDS011;10722;51.910;8.352;2022-08-06T15:14:49;1.70;;;0.50;;
21128;SDS011;10722;51.910;8.352;2022-08-06T15:17:35;2.20;;;0.50;;
21128;SDS011;10722;51.910;8.352;2022-08-06T15:20:40;1.17;;;0.47;;
21128;SDS011;10722;51.910;8.352;2022-08-06T15:23:27;3.42;;;0.52;;
21128;SDS011;10722;51.910;8.352;2022-08-06T15:26:15;4.88;;;0.75;;
21128;SDS011;10722;51.910;8.352;2022-08-06T15:29:21;2.22;;;0.40;;
21128;SDS011;10722;51.910;8.352;2022-08-06T15:32:07;2.38;;;0.60;;
21128;SDS011;10722;51.910;8.352;2022-08-06T15:35:02;3.80;;;0.80;;
21128;SDS011;10722;51.910;8.352;2022-08-06T15:37:48;3.80;;;1.23;;
21128;SDS011;10722;51.910;8.352;2022-08-06T15:40:41;4.45;;;1.40;;
21128;SDS011;10722;51.910;8.352;2022-08-06T15:43:27;2.38;;;0.63;;
21128;SDS011;10722;51.910;8.352;2022-08-06T15:46:28;2.22;;;0.40;;
21128;SDS011;10722;51.910;8.352;2022-08-06T15:49:14;2.15;;;0.68;;
21128;SDS011;10722;51.910;8.352;2022-08-06T15:52:10;1.83;;;0.60;;
21128;SDS011;10722;51.910;8.352;2022-08-06T15:54:56;2.03;;;0.40;;
21128;SDS011;10722;51.910;8.352;2022-08-06T15:57:43;4.57;;;1.10;;
21128;SDS011;10722;51.910;8.352;2022-08-06T16:00:49;3.88;;;0.70;;
21128;SDS011;10722;51.910;8.352;2022-08-06T16:03:49;2.47;;;0.60;;
21128;SDS011;10722;51.910;8.352;2022-08-06T16:06:41;1.55;;;0.52;;
21128;SDS011;10722;51.910;8.352;2022-08-06T16:09:32;3.30;;;0.57;;
21128;SDS011;10722;51.910;8.352;2022-08-06T16:12:39;2.20;;;0.63;;
21128;SDS011;10722;51.910;8.352;2022-08-06T16:15:28;3.70;;;0.45;;
21128;SDS011;10722;51.910;8.352;2022-08-06T16:18:21;1.05;;;0.50;;
21128;SDS011;10722;51.910;8.352;2022-08-06T16:21:15;4.47;;;0.70;;
21128;SDS011;10722;51.910;8.352;2022-08-06T16:24:01;3.28;;;0.57;;
21128;SDS011;10722;51.910;8.352;2022-08-06T16:26:49;2.28;;;0.50;;
21128;SDS011;10722;51.910;8.352;2022-08-06T16:29:42;1.40;;;0.40;;
21128;SDS011;10722;51.910;8.352;2022-08-06T16:32:32;2.03;;;0.73;;
21128;SDS011;10722;51.910;8.352;2022-08-06T16:35:18;3.58;;;0.65;;
21128;SDS011;10722;51.910;8.352;2022-08-06T16:38:05;1.10;;;0.30;;
21128;SDS011;10722;51.910;8.352;2022-08-06T16:41:01;5.28;;;2.10;;
21128;SDS011;10722;51.910;8.352;2022-08-06T16:43:47;2.47;;;0.77;;
21128;SDS011;10722;51.910;8.352;2022-08-06T16:46:35;2.67;;;0.80;;
21128;SDS011;10722;51.910;8.352;2022-08-06T16:49:24;4.88;;;0.90;;
21128;SDS011;10722;51.910;8.352;2022-08-06T16:52:29;4.68;;;0.95;;
21128;SDS011;10722;51.910;8.352;2022-08-06T16:55:29;4.38;;;1.23;;
21128;SDS011;10722;51.910;8.352;2022-08-06T16:58:15;2.42;;;0.52;;
21128;SDS011;10722;51.910;8.352;2022-08-06T17:01:20;3.70;;;0.88;;
21128;SDS011;10722;51.910;8.352;2022-08-06T17:04:26;6.63;;;2.40;;
21128;SDS011;10722;51.910;8.352;2022-08-06T17:07:16;4.07;;;1.27;;
21128;SDS011;10722;51.910;8.352;2022-08-06T17:10:21;4.45;;;1.13;;
21128;SDS011;10722;51.910;8.352;2022-08-06T17:13:09;4.95;;;1.40;;
21128;SDS011;10722;51.910;8.352;2022-08-06T17:15:55;2.90;;;1.17;;
21128;SDS011;10722;51.910;8.352;2022-08-06T17:18:41;3.55;;;0.93;;
21128;SDS011;10722;51.910;8.352;2022-08-06T17:21:33;4.38;;;1.20;;
21128;SDS011;10722;51.910;8.352;2022-08-06T17:24:38;6.22;;;1.35;;
21128;SDS011;10722;51.910;8.352;2022-08-06T17:27:28;4.60;;;1.27;;
21128;SDS011;10722;51.910;8.352;2022-08-06T17:30:33;3.88;;;1.20;;
21128;SDS011;10722;51.910;8.352;2022-08-06T17:33:19;5.05;;;1.30;;
21128;SDS011;10722;51.910;8.352;2022-08-06T17:36:07;3.55;;;1.00;;
21128;SDS011;10722;51.910;8.352;2022-08-06T17:39:12;6.68;;;1.40;;
21128;SDS011;10722;51.910;8.352;2022-08-06T17:41:59;3.70;;;1.17;;
21128;SDS011;10722;51.910;8.352;2022-08-06T17:44:56;4.78;;;1.23;;
21128;SDS011;10722;51.910;8.352;2022-08-06T17:47:41;4.50;;;1.23;;
21128;SDS011;10722;51.910;8.352;2022-08-06T17:50:36;3.92;;;1.10;;
21128;SDS011;10722;51.910;8.352;2022-08-06T17:53:26;3.17;;;0.93;;
21128;SDS011;10722;51.910;8.352;2022-08-06T17:56:31;4.95;;;1.08;;
21128;SDS011;10722;51.910;8.352;2022-08-06T17:59:16;3.38;;;0.90;;
21128;SDS011;10722;51.910;8.352;2022-08-06T18:02:06;4.93;;;0.90;;
21128;SDS011;10722;51.910;8.352;2022-08-06T18:04:52;4.00;;;0.85;;
21128;SDS011;10722;51.910;8.352;2022-08-06T18:07:37;4.25;;;1.10;;
21128;SDS011;10722;51.910;8.352;2022-08-06T18:10:42;4.03;;;0.93;;
21128;SDS011;10722;51.910;8.352;2022-08-06T18:13:28;4.57;;;0.75;;
21128;SDS011;10722;51.910;8.352;2022-08-06T18:16:33;4.20;;;1.40;;
21128;SDS011;10722;51.910;8.352;2022-08-06T18:19:19;5.72;;;1.40;;
21128;SDS011;10722;51.910;8.352;2022-08-06T18:22:04;4.07;;;1.40;;